Terminal Aerodrome Forecast
Issued by NWS Wichita, KS

Home | Current Version | Previous Version | Graphics & Text | Print | Product List | Glossary On
Versions: 1 2 3 4 5 6 7 8 9 10 11 12 13 14 15 16
284
FTUS43 KICT 192321
TAFICT
TAF
KICT 192321Z 2000/2024 08009KT P6SM FEW250
     FM201400 14011KT P6SM SCT250
     FM201700 14015G23KT P6SM SCT250=

USA.gov is the U.S. government's official web portal to all federal, state and local government web resources and services.